Time;durP1;ratioP1;P1;durP2;ratioP2;P2;SDS_P1;SDS_P2;PMS_P1;PMS_P2;Temp;Humidity;BMP_temperature;BMP_pressure;BME280_temperature;BME280_humidity;BME280_pressure;Samples;Min_cycle;Max_cycle;Signal;HPM_P1;HPM_P2
2022/06/14 00:03:18;;;;;;;6.10;5.50;;;;;;;21.53;48.06;93879.78;4957488;28;20138;-90
2022/06/14 00:05:43;;;;;;;6.78;5.60;;;;;;;21.51;48.06;93879.56;4969402;28;20046;-91
2022/06/14 00:08:10;;;;;;;6.65;5.55;;;;;;;21.53;48.17;93877.78;4968084;28;20039;-91
2022/06/14 00:10:35;;;;;;;6.57;5.78;;;;;;;21.51;47.96;93883.06;4957076;28;20192;-91
2022/06/14 00:13:01;;;;;;;7.97;5.47;;;;;;;21.50;48.38;93878.06;4985919;28;20038;-91
2022/06/14 00:15:26;;;;;;;5.43;4.93;;;;;;;21.51;48.09;93879.56;5008302;28;20599;-90
2022/06/14 00:17:51;;;;;;;6.82;5.55;;;;;;;21.50;47.91;93878.81;4992302;28;20432;-90
2022/06/14 00:20:17;;;;;;;5.60;4.95;;;;;;;21.50;48.06;93883.56;5007784;28;20053;-90
2022/06/14 00:22:42;;;;;;;6.03;5.18;;;;;;;21.50;48.10;93880.81;5008876;28;20042;-90
2022/06/14 00:25:12;;;;;;;7.13;4.85;;;;;;;21.50;48.07;93883.56;5026936;28;20494;-91
2022/06/14 00:27:37;;;;;;;5.90;5.30;;;;;;;21.48;48.11;93878.59;5027959;28;20092;-91
2022/06/14 00:30:03;;;;;;;6.00;5.03;;;;;;;21.48;47.87;93880.59;4999806;28;20069;-91
2022/06/14 00:32:28;;;;;;;5.72;4.80;;;;;;;21.47;48.22;93882.59;4999952;28;20058;-90
2022/06/14 00:34:54;;;;;;;8.05;5.35;;;;;;;21.48;48.15;93881.34;4978055;28;20544;-90
2022/06/14 00:37:19;;;;;;;5.75;5.15;;;;;;;21.48;48.15;93884.09;4976440;28;20640;-90
2022/06/14 00:39:44;;;;;;;5.35;4.85;;;;;;;21.49;47.77;93882.09;4977622;28;20045;-90
2022/06/14 00:42:17;;;;;;;6.60;5.30;;;;;;;21.47;48.34;93877.09;4976833;28;20349;-91
2022/06/14 00:44:42;;;;;;;6.57;4.82;;;;;;;21.48;47.96;93877.84;4988942;28;20038;-91
2022/06/14 00:47:14;;;;;;;6.13;4.90;;;;;;;21.47;47.94;93871.59;4995261;28;20057;-91
2022/06/14 00:49:47;;;;;;;5.93;5.13;;;;;;;21.48;47.98;93884.09;4994190;28;20033;-91
2022/06/14 00:52:27;;;;;;;5.18;4.68;;;;;;;21.48;47.96;93883.34;4978500;28;20034;-90
2022/06/14 00:54:56;;;;;;;5.95;5.10;;;;;;;21.44;47.89;93883.63;4990174;28;20048;-91
2022/06/14 00:57:27;;;;;;;5.07;4.53;;;;;;;21.45;47.92;93884.38;4975544;28;20031;-90
2022/06/14 01:00:07;;;;;;;4.97;4.47;;;;;;;21.45;48.20;93879.63;4992365;28;20049;-91
2022/06/14 01:02:36;;;;;;;4.85;4.45;;;;;;;21.45;47.88;93885.13;4980152;28;20030;-90
2022/06/14 01:05:04;;;;;;;4.68;4.25;;;;;;;21.44;47.95;93882.91;4993763;28;20500;-91
2022/06/14 01:07:32;;;;;;;6.18;4.05;;;;;;;21.43;48.06;93882.19;4988948;28;20126;-91
2022/06/14 01:10:02;;;;;;;5.18;4.68;;;;;;;21.41;48.21;93887.44;4976807;28;20534;-91
2022/06/14 01:12:30;;;;;;;6.13;4.95;;;;;;;21.44;48.22;93885.63;4976798;28;20059;-89
2022/06/14 01:15:07;;;;;;;4.90;4.40;;;;;;;21.43;48.06;93886.94;4992454;28;20026;-91
2022/06/14 01:17:35;;;;;;;5.05;4.55;;;;;;;21.44;47.64;93888.41;4978521;28;20052;-92
2022/06/14 01:20:01;;;;;;;5.65;4.10;;;;;;;21.42;47.79;93888.19;4973829;28;20125;-90
2022/06/14 01:22:28;;;;;;;5.70;4.63;;;;;;;21.40;48.11;93883.22;4956942;28;20121;-90
2022/06/14 01:24:53;;;;;;;4.97;4.47;;;;;;;21.43;47.95;93878.69;4973760;28;20099;-92
2022/06/14 01:27:19;;;;;;;5.22;4.45;;;;;;;21.41;47.93;93875.69;4992069;28;20480;-92
2022/06/14 01:29:46;;;;;;;4.50;4.10;;;;;;;21.41;47.94;93883.97;4992833;28;20065;-89
2022/06/14 01:32:13;;;;;;;5.28;4.65;;;;;;;21.42;48.21;93877.94;4975546;28;20504;-92
2022/06/14 01:34:45;;;;;;;4.47;3.80;;;;;;;21.42;47.90;93883.44;4988818;28;20042;-89
2022/06/14 01:37:11;;;;;;;6.13;4.20;;;;;;;21.41;47.93;93881.22;4986880;28;20489;-90
2022/06/14 01:39:36;;;;;;;6.97;4.40;;;;;;;21.40;48.04;93879.72;4998418;28;20045;-90
2022/06/14 01:42:21;;;;;;;4.85;4.03;;;;;;;21.39;48.35;93876.22;4972483;28;20045;-89
2022/06/14 01:45:00;;;;;;;4.38;3.95;;;;;;;21.39;47.88;93867.97;4992774;28;20088;-90
2022/06/14 01:47:50;;;;;;;4.45;4.03;;;;;;;21.40;47.73;93876.97;5024450;28;20042;-91
2022/06/14 01:53:48;;;;;;;5.28;4.28;;;;;;;21.38;47.82;93871.25;5015561;28;20415;-91
2022/06/14 01:56:20;;;;;;;4.47;4.07;;;;;;;21.37;47.57;93870.50;4976033;28;20103;-91
2022/06/14 01:59:00;;;;;;;4.75;4.00;;;;;;;21.37;47.87;93872.50;4990469;28;20046;-90
2022/06/14 02:01:33;;;;;;;5.00;4.10;;;;;;;21.38;47.99;93871.25;4986846;28;20038;-90
2022/06/14 02:04:39;;;;;;;4.07;3.67;;;;;;;21.38;47.82;93868.50;5007036;28;20057;-91
2022/06/14 02:07:16;;;;;;;4.60;4.07;;;;;;;21.37;47.85;93872.50;5006579;28;20108;-92
2022/06/14 02:10:02;;;;;;;4.57;4.10;;;;;;;21.36;48.13;93874.50;4970776;28;20069;-91
2022/06/14 02:13:07;;;;;;;4.32;3.92;;;;;;;21.36;47.96;93866.25;4970791;28;20042;-90
2022/06/14 02:16:07;;;;;;;4.13;3.60;;;;;;;21.35;47.83;93875.78;4980521;28;20440;-91
2022/06/14 02:18:37;;;;;;;4.22;3.83;;;;;;;21.37;47.80;93870.50;4989689;28;20097;-91
2022/06/14 02:21:35;;;;;;;3.88;3.47;;;;;;;21.34;47.84;93871.53;4973674;28;20031;-89
2022/06/14 02:24:21;;;;;;;3.95;3.55;;;;;;;21.35;48.04;93875.03;4984729;28;20201;-90
2022/06/14 02:26:51;;;;;;;4.32;3.92;;;;;;;21.35;47.82;93886.03;5005124;28;20045;-90
2022/06/14 02:29:27;;;;;;;4.30;3.90;;;;;;;21.34;47.79;93881.78;4987868;28;20080;-91
2022/06/14 02:32:00;;;;;;;5.32;4.03;;;;;;;21.34;47.58;93876.28;4987870;28;20045;-90
2022/06/14 02:34:29;;;;;;;4.43;3.58;;;;;;;21.35;47.83;93881.28;4971871;28;20031;-92
2022/06/14 02:37:04;;;;;;;3.97;3.60;;;;;;;21.32;47.84;93876.06;4988071;28;20117;-91
2022/06/14 02:39:35;;;;;;;5.20;4.03;;;;;;;21.32;48.04;93863.06;5006815;28;20049;-91
2022/06/14 02:42:04;;;;;;;;;;;;;;;21.34;47.85;93866.03;4992363;28;20033;-91
2022/06/14 02:44:52;;;;;;;5.18;3.65;;;;;;;21.31;47.67;93861.56;5009080;28;19921;-90
2022/06/14 02:47:41;;;;;;;4.95;3.80;;;;;;;21.31;47.61;93871.81;4991031;28;20054;-90
2022/06/14 02:50:19;;;;;;;4.35;3.83;;;;;;;21.32;47.87;93873.31;4989046;28;20037;-90
2022/06/14 02:52:51;;;;;;;4.03;3.60;;;;;;;21.28;48.11;93864.59;4994609;28;20117;-92
2022/06/14 02:55:23;;;;;;;3.85;3.42;;;;;;;21.30;48.06;93875.81;4994727;28;20053;-89
2022/06/14 02:57:58;;;;;;;4.53;3.70;;;;;;;21.30;47.96;93878.56;4985204;28;20476;-91
2022/06/14 03:00:26;;;;;;;4.38;3.55;;;;;;;21.30;47.86;93873.06;5006577;28;20176;-91
2022/06/14 03:03:01;;;;;;;4.07;3.25;;;;;;;21.29;48.00;93879.84;5008147;28;20064;-90
2022/06/14 03:05:33;;;;;;;4.50;3.53;;;;;;;21.29;47.82;93875.09;4991632;28;20037;-91
2022/06/14 03:08:16;;;;;;;4.25;3.50;;;;;;;21.30;47.94;93878.56;4998967;28;20066;-91
2022/06/14 03:11:05;;;;;;;3.85;3.45;;;;;;;21.29;47.94;93879.84;5010878;28;20044;-91
2022/06/14 03:13:45;;;;;;;3.33;2.90;;;;;;;21.29;47.78;93883.34;5010768;28;20129;-91
2022/06/14 03:16:36;;;;;;;4.68;3.20;;;;;;;21.31;47.94;93877.31;5006783;28;20034;-91
2022/06/14 03:19:12;;;;;;;4.43;3.47;;;;;;;21.30;47.69;93884.06;4992058;28;20034;-89
2022/06/14 03:21:47;;;;;;;3.53;3.22;;;;;;;21.28;47.54;93881.09;4985292;28;20033;-91
2022/06/14 03:24:21;;;;;;;3.70;3.40;;;;;;;21.28;47.80;93875.59;4998245;28;20116;-91
2022/06/14 03:27:09;;;;;;;4.15;3.15;;;;;;;21.28;47.81;93879.09;5020730;28;20040;-90
2022/06/14 03:29:43;;;;;;;4.00;3.10;;;;;;;21.28;47.50;93870.84;4997104;28;20228;-92
2022/06/14 03:32:16;;;;;;;3.58;3.28;;;;;;;21.27;47.80;93866.59;5005205;28;20048;-91
2022/06/14 03:34:50;;;;;;;4.72;3.30;;;;;;;21.27;47.95;93871.38;4971823;28;20675;-90
2022/06/14 03:37:15;;;;;;;3.97;3.30;;;;;;;21.31;47.48;93869.81;4980542;28;20073;-91
2022/06/14 03:39:48;;;;;;;4.05;3.45;;;;;;;21.28;47.59;93873.59;4989892;28;20068;-90
2022/06/14 03:42:13;;;;;;;4.20;3.78;;;;;;;21.34;47.74;93879.78;4985622;28;20480;-90
2022/06/14 03:44:39;;;;;;;18.27;13.50;;;;;;;21.30;47.84;93882.06;4982514;28;20038;-90
2022/06/14 03:47:11;;;;;;;19.33;17.33;;;;;;;21.31;47.96;93869.06;4986957;28;20038;-89
2022/06/14 03:49:39;;;;;;;11.23;10.13;;;;;;;21.30;47.75;93873.81;4983033;28;20093;-92
2022/06/14 03:52:12;;;;;;;190.95;18.67;;;;;;;21.25;45.84;93871.13;4972385;28;20042;-90
2022/06/14 03:54:49;;;;;;;51.20;7.00;;;;;;;21.13;43.54;93879.50;4981249;28;20066;-92
2022/06/14 03:57:32;;;;;;;23.33;7.80;;;;;;;21.07;42.72;93880.81;5001537;28;20049;-90
2022/06/14 04:00:04;;;;;;;25.02;9.90;;;;;;;20.96;41.96;93878.19;4962845;28;20042;-91
2022/06/14 04:02:54;;;;;;;21.90;7.13;;;;;;;20.91;41.83;93881.75;4984040;28;20048;-91
2022/06/14 04:05:37;;;;;;;9.60;5.30;;;;;;;20.77;42.05;93875.41;5024317;28;20049;-91
2022/06/14 04:08:21;;;;;;;11.85;5.25;;;;;;;20.80;42.69;93886.09;4997484;28;20042;-89
2022/06/14 04:11:05;;;;;;;13.25;4.80;;;;;;;20.72;41.58;93882.44;5000420;28;20053;-89
2022/06/14 04:13:43;;;;;;;10.18;4.25;;;;;;;20.66;42.05;93879.00;4989156;28;20038;-88
2022/06/14 04:16:26;;;;;;;9.63;4.47;;;;;;;20.66;41.92;93884.47;4986886;28;20081;-89
2022/06/14 04:19:18;;;;;;;14.40;4.20;;;;;;;20.64;42.14;93883.50;4986410;28;20049;-91
2022/06/14 04:22:02;;;;;;;7.80;4.13;;;;;;;20.58;41.77;93882.81;4998566;28;20069;-90
2022/06/14 04:24:35;;;;;;;9.95;4.07;;;;;;;20.50;42.10;93882.66;4978135;28;20038;-88
2022/06/14 04:27:22;;;;;;;38.35;6.70;;;;;;;20.58;42.15;93885.56;4983503;28;20053;-89
2022/06/14 04:30:02;;;;;;;18.42;6.65;;;;;;;20.52;42.33;93875.38;5009234;28;20073;-90
2022/06/14 04:32:42;;;;;;;25.23;7.63;;;;;;;20.53;42.72;93876.88;4986488;28;20511;-89
2022/06/14 04:35:13;;;;;;;76.32;55.60;;;;;;;20.55;42.76;93883.84;5002854;28;20048;-88
2022/06/14 04:37:44;;;;;;;58.65;34.90;;;;;;;20.45;42.92;93880.69;4986094;28;20064;-90
2022/06/14 04:40:34;;;;;;;57.10;19.20;;;;;;;20.49;43.56;93879.16;4990785;28;20046;-88
2022/06/14 04:43:09;;;;;;;25.63;8.90;;;;;;;20.50;43.37;93879.91;5002588;28;20052;-92
2022/06/14 04:45:36;;;;;;;13.35;6.80;;;;;;;20.44;43.65;93881.94;4998895;28;20050;-93
2022/06/14 04:48:06;;;;;;;24.67;6.68;;;;;;;20.17;43.73;93891.88;4969576;28;20054;-90
2022/06/14 04:50:37;;;;;;;8.00;5.00;;;;;;;20.06;44.56;93889.22;4997862;28;20415;-90
2022/06/14 04:53:14;;;;;;;11.00;4.78;;;;;;;19.74;45.11;93894.41;4989056;28;20037;-92
2022/06/14 04:55:45;;;;;;;32.70;7.03;;;;;;;19.59;45.22;93894.75;5008386;28;20037;-90
2022/06/14 04:58:15;;;;;;;11.40;5.93;;;;;;;19.63;45.29;93889.00;5008735;28;20053;-89
2022/06/14 05:00:46;;;;;;;18.08;6.93;;;;;;;19.39;45.43;93878.59;4985913;28;20038;-90
2022/06/14 05:03:22;;;;;;;29.48;6.63;;;;;;;19.29;45.69;93885.63;4988468;28;20053;-92
2022/06/14 05:06:28;;;;;;;20.20;6.68;;;;;;;19.36;46.01;93883.09;4977423;28;20089;-91
2022/06/14 05:09:03;;;;;;;21.10;7.05;;;;;;;19.37;45.50;93890.09;4960521;28;20101;-90
2022/06/14 05:11:40;;;;;;;46.15;7.72;;;;;;;19.09;46.38;93890.19;4947737;28;20041;-94
2022/06/14 05:14:10;;;;;;;17.90;5.85;;;;;;;19.03;46.99;93886.00;4959732;28;20074;-92
2022/06/14 05:16:46;;;;;;;9.83;4.87;;;;;;;19.02;47.29;93892.72;4972297;28;20488;-93
2022/06/14 05:19:29;;;;;;;12.88;5.57;;;;;;;18.92;47.67;93899.72;4964403;28;20324;-95
2022/06/14 05:22:08;;;;;;;7.97;5.40;;;;;;;18.89;47.98;93898.72;4971738;28;20041;-93
2022/06/14 05:24:34;;;;;;;16.00;6.57;;;;;;;18.84;48.16;93899.47;4945939;28;20178;-93
2022/06/14 05:27:11;;;;;;;32.95;14.10;;;;;;;18.94;47.88;93895.22;4938221;28;20042;-91
2022/06/14 05:29:46;;;;;;;39.47;21.73;;;;;;;18.78;48.37;93902.25;4976272;28;20053;-92
2022/06/14 05:32:24;;;;;;;31.83;17.10;;;;;;;18.97;48.06;93907.19;4960529;28;20121;-91
2022/06/14 05:35:08;;;;;;;36.00;12.45;;;;;;;19.06;47.92;93915.84;4967562;28;20053;-90
2022/06/14 05:37:52;;;;;;;26.88;13.40;;;;;;;19.24;47.57;93914.56;4967420;28;20047;-91
2022/06/14 05:40:49;;;;;;;34.15;17.83;;;;;;;19.39;47.34;93911.50;4942688;28;20092;-93
2022/06/14 05:43:19;;;;;;;114.30;40.80;;;;;;;19.50;47.04;93919.69;4953305;28;20110;-94
2022/06/14 05:45:59;;;;;;;146.63;56.47;;;;;;;19.59;46.85;93913.94;5001418;28;20037;-92
2022/06/14 05:48:31;;;;;;;165.40;73.63;;;;;;;19.71;46.72;93915.34;5005649;28;20041;-93
2022/06/14 05:50:57;;;;;;;162.00;74.82;;;;;;;19.75;46.38;93915.84;4994696;28;20104;-92
2022/06/14 05:53:30;;;;;;;158.85;79.63;;;;;;;19.88;45.86;93901.56;5005118;28;20414;-94
2022/06/14 05:56:02;;;;;;;145.25;74.47;;;;;;;19.91;45.73;93906.03;4982175;28;20033;-91
2022/06/14 05:58:35;;;;;;;160.52;70.13;;;;;;;19.94;45.74;93909.72;4971576;28;20037;-93
2022/06/14 06:01:11;;;;;;;144.48;70.85;;;;;;;20.02;45.44;93907.94;5004948;28;20049;-92
2022/06/14 06:03:46;;;;;;;140.52;64.57;;;;;;;20.10;45.52;93897.91;4983542;28;20066;-93
2022/06/14 06:06:30;;;;;;;136.30;63.70;;;;;;;20.11;45.20;93905.66;5010412;28;20124;-91
2022/06/14 06:09:02;;;;;;;115.38;55.72;;;;;;;20.25;45.10;93908.53;4985219;28;20049;-90
2022/06/14 06:11:33;;;;;;;106.93;51.58;;;;;;;20.26;44.79;93923.75;5024765;28;20099;-88
2022/06/14 06:14:09;;;;;;;;;;;;;;;20.42;44.48;93925.66;4994847;28;20038;-90
2022/06/14 06:17:02;;;;;;;86.93;42.90;;;;;;;20.37;44.74;93918.94;5012955;28;19925;-89
2022/06/14 06:19:35;;;;;;;87.38;44.15;;;;;;;20.37;44.48;93921.69;5030109;28;20068;-90
2022/06/14 06:22:25;;;;;;;58.13;34.63;;;;;;;20.38;44.66;93922.44;5023180;28;20033;-90
2022/06/14 06:24:55;;;;;;;153.15;57.10;;;;;;;20.49;44.33;93919.59;5015820;28;20152;-90
2022/06/14 06:27:24;;;;;;;45.67;22.13;;;;;;;20.27;44.43;93925.25;5007164;28;20057;-92
2022/06/14 06:29:54;;;;;;;53.75;26.17;;;;;;;20.14;45.11;93918.31;5009605;28;20068;-90
2022/06/14 06:32:20;;;;;;;86.22;40.42;;;;;;;20.14;45.02;93923.06;4995362;28;20550;-91
2022/06/14 06:34:46;;;;;;;57.72;29.13;;;;;;;20.15;45.21;93914.34;4978886;28;20050;-93
2022/06/14 06:37:17;;;;;;;74.20;37.85;;;;;;;20.29;45.11;93915.25;4994043;28;20711;-92
2022/06/14 06:40:15;;;;;;;170.80;59.08;;;;;;;20.26;45.11;93908.03;4992032;28;20038;-93
2022/06/14 06:43:18;;;;;;;128.23;51.03;;;;;;;20.33;45.03;93909.47;5022939;28;20082;-94
2022/06/14 06:45:44;;;;;;;104.13;52.28;;;;;;;20.35;45.19;93906.97;5022565;28;20077;-93
2022/06/14 06:48:17;;;;;;;98.20;50.03;;;;;;;20.42;45.16;93909.16;4993236;28;20050;-94
2022/06/14 06:50:52;;;;;;;105.22;47.38;;;;;;;20.42;44.86;93914.66;5003880;28;20466;-92
2022/06/14 06:53:21;;;;;;;100.10;45.80;;;;;;;20.51;44.86;93909.59;4992137;28;20132;-92
2022/06/14 06:56:03;;;;;;;86.28;41.58;;;;;;;20.54;44.65;93913.31;4993776;28;20052;-92
2022/06/14 06:58:36;;;;;;;72.85;32.70;;;;;;;20.51;44.78;93914.34;4993924;28;20112;-93
2022/06/14 07:01:10;;;;;;;69.75;34.47;;;;;;;20.54;44.64;93916.06;4979793;28;20045;-93
2022/06/14 07:19:53;;;;;;;43.08;25.70;;;;;;;20.73;44.17;93916.16;4995057;28;20050;-94
2022/06/14 07:23:00;;;;;;;41.17;22.85;;;;;;;20.69;44.41;93918.44;4966367;28;20396;-94
2022/06/14 07:25:48;;;;;;;39.78;20.73;;;;;;;20.68;44.57;93916.94;4983439;28;20187;-95
2022/06/14 07:31:10;;;;;;;1420.55;241.23;;;;;;;20.76;44.47;93918.63;5055450;23;20048;-96
2022/06/14 07:33:44;;;;;;;660.45;110.80;;;;;;;20.77;44.72;93917.38;5005623;28;20049;-94
2022/06/14 07:36:16;;;;;;;229.68;55.55;;;;;;;20.74;44.79;93914.91;4988892;28;20034;-95
2022/06/14 07:38:52;;;;;;;392.15;75.38;;;;;;;20.76;44.53;93909.63;4976341;28;20056;-93
2022/06/14 07:41:26;;;;;;;401.98;74.32;;;;;;;20.86;44.45;93908.03;4985379;28;20096;-90
2022/06/14 07:44:14;;;;;;;280.13;58.20;;;;;;;20.86;44.37;93910.78;5002266;28;20103;-91
2022/06/14 07:46:47;;;;;;;262.25;55.83;;;;;;;20.79;44.66;93909.31;4981461;28;20080;-92
2022/06/14 07:49:21;;;;;;;226.73;49.58;;;;;;;20.85;44.69;93903.78;4956118;28;20091;-92
2022/06/14 07:52:08;;;;;;;214.70;45.95;;;;;;;20.81;44.50;93906.06;4962891;28;20587;-93
2022/06/14 07:54:40;;;;;;;201.80;40.75;;;;;;;20.84;44.35;93908.53;4939087;28;20047;-91
2022/06/14 07:57:17;;;;;;;168.00;36.78;;;;;;;20.82;44.08;93907.56;4961803;28;20053;-91
2022/06/14 07:59:54;;;;;;;149.40;30.42;;;;;;;20.82;42.60;93910.31;4934500;28;20078;-93
2022/06/14 08:02:26;;;;;;;103.10;26.67;;;;;;;20.74;42.73;93912.16;4939712;28;20133;-92
2022/06/14 08:04:57;;;;;;;111.72;35.00;;;;;;;20.74;42.02;93914.91;4936955;28;20046;-90
2022/06/14 08:07:23;;;;;;;;;;;;;;;20.79;42.17;93911.31;4969246;28;20043;-91
2022/06/14 08:10:03;;;;;;;93.25;30.83;;;;;;;20.78;42.21;93912.63;4948012;28;19922;-92
2022/06/14 08:12:42;;;;;;;170.65;48.80;;;;;;;20.71;42.31;93918.66;4956883;28;20092;-91
2022/06/14 08:15:29;;;;;;;91.65;33.38;;;;;;;20.69;42.10;93910.94;4946601;28;20093;-94
2022/06/14 08:18:13;;;;;;;92.20;39.85;;;;;;;20.74;42.26;93912.91;4930495;28;20036;-94
2022/06/14 08:20:46;;;;;;;74.88;32.45;;;;;;;20.73;41.95;93914.16;4990713;28;20096;-94
2022/06/14 08:23:26;;;;;;;71.03;34.53;;;;;;;20.76;41.51;93913.13;4970071;28;20042;-90
2022/06/14 08:25:55;;;;;;;65.57;33.88;;;;;;;20.75;41.45;93914.38;4980248;28;20037;-90
2022/06/14 08:28:25;;;;;;;82.40;40.20;;;;;;;20.80;41.00;93902.56;4956638;28;20442;-90
2022/06/14 08:30:59;;;;;;;62.28;30.65;;;;;;;20.72;41.27;93909.16;4972055;28;20049;-93
2022/06/14 08:34:07;;;;;;;55.88;31.95;;;;;;;20.67;41.35;93907.94;4973850;28;20049;-95
2022/06/14 08:36:52;;;;;;;66.35;33.17;;;;;;;20.65;41.36;93907.72;4909843;28;20087;-96
2022/06/14 08:39:32;;;;;;;52.50;26.48;;;;;;;20.71;41.43;93904.94;4975973;28;20046;-93
2022/06/14 08:42:00;;;;;;;;;;;;;;;20.77;41.57;93900.13;4956051;28;20141;-95
2022/06/14 08:44:36;;;;;;;58.65;33.78;;;;;;;20.74;41.02;93914.91;4959467;28;19922;-91
2022/06/14 08:47:32;;;;;;;78.68;41.35;;;;;;;20.74;40.94;93904.66;4943635;28;20042;-92
2022/06/14 08:50:07;;;;;;;61.50;32.85;;;;;;;20.57;41.05;93903.31;4937202;28;20164;-92
2022/06/14 08:52:51;;;;;;;55.17;31.00;;;;;;;20.67;40.90;93899.72;4949103;28;20395;-92
2022/06/14 08:55:46;;;;;;;53.03;29.23;;;;;;;20.68;40.98;93894.97;4952775;28;20038;-91
2022/06/14 08:58:29;;;;;;;47.70;27.60;;;;;;;20.70;41.42;93898.69;4910585;29;20491;-90
2022/06/14 09:01:18;;;;;;;40.72;24.67;;;;;;;20.61;41.73;93901.75;4897422;29;20049;-87
2022/06/14 09:03:53;;;;;;;36.58;19.77;;;;;;;20.61;41.90;93893.50;4890882;29;20080;-92
2022/06/14 09:06:33;;;;;;;38.88;20.75;;;;;;;20.71;41.74;93899.44;4913262;29;20124;-92
2022/06/14 09:09:20;;;;;;;50.08;26.75;;;;;;;20.61;41.63;93895.53;4901697;29;20056;-92
2022/06/14 09:11:52;;;;;;;59.10;33.10;;;;;;;20.58;41.59;93900.03;4922257;29;20052;-93
2022/06/14 09:14:26;;;;;;;66.20;35.75;;;;;;;20.71;41.59;93899.44;4907088;29;20041;-93
2022/06/14 09:17:07;;;;;;;75.57;40.40;;;;;;;20.65;41.83;93893.97;4910329;29;20051;-88
2022/06/14 09:20:02;;;;;;;95.43;51.53;;;;;;;20.63;42.00;93898.50;4894209;29;20142;-89
2022/06/14 09:22:33;;;;;;;154.43;82.95;;;;;;;20.69;41.52;93896.44;4912383;29;20048;-92
2022/06/14 09:25:09;;;;;;;116.97;62.28;;;;;;;20.67;41.82;93904.47;4897704;29;20068;-92
2022/06/14 09:27:49;;;;;;;120.25;61.30;;;;;;;20.67;41.95;93905.22;4914680;29;20056;-90
2022/06/14 09:30:33;;;;;;;105.65;57.78;;;;;;;20.68;41.91;93895.72;4920145;29;20051;-89
2022/06/14 09:33:23;;;;;;;113.85;60.38;;;;;;;20.58;41.91;93899.28;4921663;29;20140;-90
2022/06/14 09:36:15;;;;;;;112.80;57.05;;;;;;;20.54;41.96;93907.84;4991355;28;20438;-90
2022/06/14 09:38:52;;;;;;;112.07;66.57;;;;;;;20.53;42.08;93903.59;4974308;28;20249;-90
2022/06/14 09:41:26;;;;;;;128.07;69.80;;;;;;;20.59;42.02;93906.28;4994050;28;20062;-90
2022/06/14 09:44:16;;;;;;;137.85;79.75;;;;;;;20.57;42.16;93903.31;4990280;28;20043;-93
2022/06/14 09:46:44;;;;;;;130.15;70.65;;;;;;;20.57;42.11;93900.56;4984644;28;20045;-91
2022/06/14 09:49:17;;;;;;;145.18;80.28;;;;;;;20.50;42.34;93912.84;4998811;28;20511;-92
2022/06/14 09:52:20;;;;;;;133.30;67.68;;;;;;;20.59;42.16;93900.78;4996580;28;20039;-91
2022/06/14 09:54:53;;;;;;;217.02;109.85;;;;;;;20.58;42.28;93896.53;5007352;28;20077;-91
2022/06/14 09:57:45;;;;;;;185.63;92.47;;;;;;;20.61;42.34;93904.50;5007528;28;20105;-90
2022/06/14 10:00:40;;;;;;;154.50;81.85;;;;;;;20.61;42.58;93909.25;4981816;28;20045;-92
2022/06/14 10:03:25;;;;;;;102.07;50.75;;;;;;;20.68;42.38;93908.69;4893110;29;20044;-92
2022/06/14 10:06:01;;;;;;;105.57;48.45;;;;;;;20.60;42.54;93905.75;4895067;29;20563;-90
2022/06/14 10:08:29;;;;;;;77.47;40.80;;;;;;;20.67;42.68;93901.72;4905230;29;20490;-89
2022/06/14 10:11:02;;;;;;;70.07;36.22;;;;;;;20.53;42.85;93900.84;4926153;29;20637;-90
2022/06/14 10:13:43;;;;;;;63.35;31.67;;;;;;;20.61;42.76;93896.25;4900090;29;20103;-88
2022/06/14 10:16:15;;;;;;;58.70;32.33;;;;;;;20.59;42.71;93890.53;4917545;29;20044;-87
2022/06/14 10:18:58;;;;;;;53.30;26.70;;;;;;;20.66;42.62;93900.97;4878739;29;20048;-89
2022/06/14 10:21:48;;;;;;;42.72;21.25;;;;;;;20.65;42.84;93896.00;4894190;29;20143;-89
2022/06/14 10:24:24;;;;;;;49.05;21.75;;;;;;;20.72;42.50;93887.94;4908991;29;20783;-89
2022/06/14 10:30:09;;;;;;;81.20;35.87;;;;;;;20.70;42.60;93892.44;4882508;29;20056;-89
2022/06/14 10:33:05;;;;;;;44.28;17.67;;;;;;;20.72;42.45;93887.94;4900840;29;20719;-89
2022/06/14 10:35:48;;;;;;;49.47;20.33;;;;;;;20.72;42.37;93887.19;4900110;29;20042;-88
2022/06/14 10:38:37;;;;;;;37.22;17.65;;;;;;;20.71;42.36;93891.19;4915641;29;20076;-90
2022/06/14 10:41:30;;;;;;;31.38;15.35;;;;;;;20.71;42.18;93891.19;4976457;28;20513;-90
2022/06/14 10:44:10;;;;;;;36.63;17.25;;;;;;;20.69;42.37;93885.47;4989068;28;20061;-87
2022/06/14 10:46:45;;;;;;;52.38;26.08;;;;;;;20.72;42.09;93887.94;5005668;28;20059;-90
2022/06/14 10:49:41;;;;;;;32.83;18.40;;;;;;;20.67;41.98;93883.22;4985322;28;20058;-88
2022/06/14 10:52:25;;;;;;;24.98;15.85;;;;;;;20.64;42.17;93878.75;4988808;28;20042;-90
2022/06/14 10:55:17;;;;;;;131.60;66.32;;;;;;;20.62;41.90;93869.53;4989186;28;20039;-88
2022/06/14 10:58:12;;;;;;;84.13;41.38;;;;;;;20.67;41.95;93874.25;4990199;28;20034;-88
2022/06/14 11:01:10;;;;;;;60.22;31.60;;;;;;;20.64;41.94;93873.25;4976103;28;20046;-88
2022/06/14 11:03:52;;;;;;;45.25;23.35;;;;;;;20.67;41.89;93874.25;4977057;28;20116;-90
2022/06/14 11:06:48;;;;;;;73.43;24.95;;;;;;;20.69;42.37;93880.72;5006522;28;20047;-89
2022/06/14 11:09:35;;;;;;;46.85;18.45;;;;;;;20.60;42.40;93874.81;4988300;28;20113;-87
2022/06/14 11:12:22;;;;;;;77.65;22.27;;;;;;;20.58;42.25;93872.56;4999287;28;20093;-90
2022/06/14 11:15:14;;;;;;;46.40;19.05;;;;;;;20.56;42.26;93866.88;4988096;28;20582;-90
2022/06/14 11:17:47;;;;;;;48.72;18.02;;;;;;;20.56;42.28;93872.38;4983601;28;20614;-89
2022/06/14 11:20:16;;;;;;;77.05;24.65;;;;;;;20.60;41.98;93867.31;4989094;28;20496;-91
2022/06/14 11:22:55;;;;;;;88.85;31.95;;;;;;;20.67;41.74;93866.75;5004767;28;20521;-90
2022/06/14 11:25:38;;;;;;;64.43;29.67;;;;;;;20.66;41.89;93857.00;4994450;28;20037;-92
2022/06/14 11:28:36;;;;;;;73.28;31.40;;;;;;;20.63;41.53;93860.78;4989168;28;20248;-89
2022/06/14 11:31:11;;;;;;;55.05;25.58;;;;;;;20.65;40.87;93843.78;5006192;28;20057;-89
2022/06/14 11:33:52;;;;;;;56.92;26.65;;;;;;;20.55;41.38;93848.91;4992660;28;20054;-89
2022/06/14 11:36:23;;;;;;;;;;;;;;;20.66;41.38;93859.75;4987944;28;20113;-89
2022/06/14 11:38:53;;;;;;;58.00;25.85;;;;;;;20.63;41.05;93854.56;4981280;28;19930;-90
2022/06/14 11:41:21;;;;;;;51.43;23.00;;;;;;;20.62;41.19;93856.56;5005312;28;20039;-87
2022/06/14 11:44:02;;;;;;;48.28;19.92;;;;;;;20.68;40.79;93842.75;4992039;28;20041;-94
2022/06/14 11:46:36;;;;;;;;;;;;;;;20.68;41.00;93851.00;4999095;28;20249;-94
2022/06/14 11:49:17;;;;;;;58.88;20.13;;;;;;;20.65;40.95;93852.03;5003955;28;19957;-92
2022/06/14 11:51:58;;;;;;;88.45;24.02;;;;;;;20.68;40.78;93857.25;4959995;28;20042;-90
2022/06/14 11:54:28;;;;;;;75.57;21.52;;;;;;;20.62;40.65;93850.31;4963042;28;20057;-91
2022/06/14 11:57:20;;;;;;;54.22;16.65;;;;;;;20.53;41.04;93845.91;5011632;28;20117;-88
2022/06/14 11:59:45;;;;;;;55.10;15.68;;;;;;;20.55;40.90;93845.41;4979237;28;20062;-90
2022/06/14 12:02:29;;;;;;;73.10;20.63;;;;;;;20.64;40.79;93842.31;5001073;28;20065;-88
2022/06/14 12:05:09;;;;;;;33.83;16.23;;;;;;;20.65;40.75;93846.53;4999916;28;20043;-87
2022/06/14 12:07:40;;;;;;;26.60;13.27;;;;;;;20.60;40.84;93841.84;4979432;28;20048;-93
2022/06/14 12:10:24;;;;;;;23.63;12.35;;;;;;;20.61;40.60;93848.81;4976400;28;20097;-89
2022/06/14 12:12:56;;;;;;;26.70;13.15;;;;;;;20.66;40.11;93834.28;4997822;28;20042;-93
2022/06/14 12:15:29;;;;;;;26.60;13.07;;;;;;;20.62;40.26;93844.81;4990052;28;20097;-92
2022/06/14 12:17:55;;;;;;;26.02;12.70;;;;;;;20.58;39.47;93831.38;4997336;28;20483;-92
2022/06/14 12:20:22;;;;;;;32.25;15.27;;;;;;;20.67;39.05;93842.03;4993983;28;20384;-91
2022/06/14 12:22:57;;;;;;;68.25;20.40;;;;;;;20.67;38.51;93839.28;4995390;28;20034;-92
2022/06/14 12:28:47;;;;;;;25.92;11.65;;;;;;;20.74;37.82;93846.22;4990175;28;20100;-90
2022/06/14 12:31:29;;;;;;;28.48;8.32;;;;;;;20.75;37.42;93836.72;4982246;28;20042;-85
2022/06/14 12:34:02;;;;;;;17.40;8.57;;;;;;;20.73;36.39;93828.97;4993938;28;20101;-89
2022/06/14 12:36:55;;;;;;;27.33;13.13;;;;;;;20.65;37.67;93833.53;4982175;28;20043;-89
2022/06/14 12:39:32;;;;;;;15.55;9.05;;;;;;;20.75;37.42;93829.22;4987129;28;20054;-94
2022/06/14 12:42:06;;;;;;;17.67;9.80;;;;;;;20.80;37.41;93833.88;4985053;28;20046;-87